Time;durP1;ratioP1;P1;durP2;ratioP2;P2;SDS_P1;SDS_P2;PMS_P1;PMS_P2;Temp;Humidity;BMP_temperature;BMP_pressure;BME280_temperature;BME280_humidity;BME280_pressure;Samples;Min_cycle;Max_cycle;Signal;HPM_P1;HPM_P2
2023/12/13 00:01:55;;;;;;;8.43;7.57;;;23.00;72.60;;;;;;6210374;28;81696;-64
2023/12/13 00:04:57;;;;;;;9.38;8.35;;;23.10;72.70;;;;;;6208837;28;82288;-64
2023/12/13 00:07:58;;;;;;;9.48;8.48;;;23.10;72.70;;;;;;6213220;28;82388;-64
2023/12/13 00:11:00;;;;;;;9.80;8.50;;;23.00;72.70;;;;;;6211764;28;81190;-64
2023/12/13 00:14:05;;;;;;;9.10;8.20;;;23.00;72.60;;;;;;6211219;28;82420;-64
2023/12/13 00:17:10;;;;;;;8.98;8.07;;;23.00;72.60;;;;;;6221990;28;83949;-64
2023/12/13 00:20:12;;;;;;;8.55;7.72;;;23.00;72.70;;;;;;6211760;28;82684;-64
2023/12/13 00:23:14;;;;;;;9.15;8.25;;;23.00;72.60;;;;;;6207359;28;82786;-64
2023/12/13 00:26:16;;;;;;;8.48;7.57;;;23.00;72.70;;;;;;6209424;28;82354;-64
2023/12/13 00:29:19;;;;;;;9.02;8.13;;;23.00;72.70;;;;;;6211051;28;82280;-64
2023/12/13 00:32:21;;;;;;;9.30;8.35;;;23.00;72.70;;;;;;6210589;28;82410;-64
2023/12/13 00:35:23;;;;;;;8.98;7.90;;;23.00;72.70;;;;;;6205650;28;82255;-64
2023/12/13 00:38:25;;;;;;;8.40;7.47;;;22.90;72.60;;;;;;6223887;28;82218;-64
2023/12/13 00:41:27;;;;;;;8.52;7.72;;;23.00;72.70;;;;;;6212301;28;82483;-64
2023/12/13 00:44:31;;;;;;;8.88;7.97;;;22.90;72.70;;;;;;6210837;28;82668;-64
2023/12/13 00:47:33;;;;;;;8.60;7.70;;;23.00;72.70;;;;;;6206184;28;81203;-64
2023/12/13 00:50:35;;;;;;;8.85;7.97;;;23.00;72.70;;;;;;6218946;28;82239;-64
2023/12/13 00:53:37;;;;;;;8.45;7.57;;;22.90;72.70;;;;;;6223097;28;82605;-64
2023/12/13 00:56:39;;;;;;;8.80;7.90;;;22.90;72.60;;;;;;6211040;28;82249;-64
2023/12/13 00:59:42;;;;;;;8.77;7.88;;;22.90;72.70;;;;;;6210411;28;82322;-64
2023/12/13 01:02:44;;;;;;;8.95;8.05;;;22.90;72.70;;;;;;6203270;28;82664;-64
2023/12/13 01:05:46;;;;;;;9.13;7.90;;;22.90;72.70;;;;;;6208560;28;82270;-64
2023/12/13 01:08:48;;;;;;;9.45;8.40;;;22.90;72.60;;;;;;6210401;28;82305;-64
2023/12/13 01:11:50;;;;;;;8.48;7.57;;;22.90;72.70;;;;;;6200102;28;82495;-64
2023/12/13 01:14:53;;;;;;;8.27;7.47;;;22.90;72.70;;;;;;6204356;28;81202;-64
2023/12/13 01:17:55;;;;;;;8.60;7.78;;;22.80;72.60;;;;;;6203596;28;81118;-64
2023/12/13 01:20:57;;;;;;;8.55;7.75;;;22.90;72.70;;;;;;6218567;28;82317;-64
2023/12/13 01:24:00;;;;;;;9.18;8.25;;;22.90;72.70;;;;;;6225739;28;82326;-64
2023/12/13 01:27:02;;;;;;;8.68;7.75;;;22.80;72.70;;;;;;6210666;28;81984;-64
2023/12/13 01:30:08;;;;;;;8.93;8.02;;;22.80;72.60;;;;;;6204104;28;81208;-64
2023/12/13 01:33:10;;;;;;;8.85;7.95;;;22.80;72.70;;;;;;6207030;28;81084;-64
2023/12/13 01:36:12;;;;;;;9.55;8.45;;;22.80;72.60;;;;;;6210634;28;82394;-64
2023/12/13 01:39:16;;;;;;;9.85;8.48;;;22.80;72.70;;;;;;6206735;28;82376;-64
2023/12/13 01:42:18;;;;;;;9.52;8.52;;;22.80;72.70;;;;;;6206393;28;82377;-64
2023/12/13 01:45:21;;;;;;;8.40;7.60;;;22.80;72.70;;;;;;6199484;28;82303;-64
2023/12/13 01:48:25;;;;;;;9.25;8.35;;;22.80;73.50;;;;;;6205634;28;82348;-64
2023/12/13 01:51:28;;;;;;;8.85;8.00;;;22.80;72.70;;;;;;6232382;28;82245;-64
2023/12/13 01:54:31;;;;;;;8.85;7.95;;;22.80;72.70;;;;;;6233440;28;82311;-64
2023/12/13 01:57:33;;;;;;;8.98;8.07;;;22.80;72.60;;;;;;6233107;28;82374;-64
2023/12/13 02:00:38;;;;;;;9.10;8.20;;;22.80;72.70;;;;;;6214547;28;82332;-63
2023/12/13 02:03:41;;;;;;;9.73;8.73;;;22.80;72.70;;;;;;6206987;28;82616;-64
2023/12/13 02:06:43;;;;;;;9.90;8.63;;;22.80;72.60;;;;;;6199560;28;82555;-64
2023/12/13 02:09:45;;;;;;;9.07;8.18;;;22.80;72.60;;;;;;6195587;28;82299;-64
2023/12/13 02:12:48;;;;;;;11.65;9.30;;;22.80;72.60;;;;;;6203089;28;82413;-64
2023/12/13 02:15:51;;;;;;;10.00;8.80;;;22.80;72.70;;;;;;6218872;28;82286;-64
2023/12/13 02:18:53;;;;;;;9.40;8.50;;;22.80;72.60;;;;;;6195626;28;82203;-64
2023/12/13 02:21:55;;;;;;;9.52;8.52;;;22.80;72.60;;;;;;6194802;28;81218;-64
2023/12/13 02:25:01;;;;;;;9.77;8.73;;;22.70;72.50;;;;;;6205768;28;82294;-64
2023/12/13 02:28:04;;;;;;;9.38;8.48;;;22.70;72.70;;;;;;6212334;28;82366;-64
2023/12/13 02:31:06;;;;;;;9.60;8.60;;;22.70;73.60;;;;;;6205395;28;82338;-64
2023/12/13 02:34:08;;;;;;;9.88;8.88;;;22.70;72.70;;;;;;6215239;28;82309;-64
2023/12/13 02:37:10;;;;;;;10.45;9.40;;;22.70;72.70;;;;;;6207787;28;82305;-64
2023/12/13 02:40:14;;;;;;;9.70;8.77;;;22.70;72.70;;;;;;6214382;28;82531;-64
2023/12/13 02:43:16;;;;;;;11.15;9.43;;;22.70;72.70;;;;;;6216093;28;80957;-64
2023/12/13 02:46:18;;;;;;;10.52;9.43;;;22.70;72.80;;;;;;6213074;28;84045;-64
2023/12/13 02:49:20;;;;;;;9.88;8.88;;;22.70;72.80;;;;;;6204397;28;82118;-64
2023/12/13 02:52:22;;;;;;;9.68;8.77;;;22.70;72.80;;;;;;6191103;28;83950;-64
2023/12/13 02:55:25;;;;;;;9.93;8.90;;;22.70;72.80;;;;;;6214449;28;83918;-64
2023/12/13 02:58:27;;;;;;;10.80;9.30;;;22.70;72.80;;;;;;6222084;28;85421;-64
2023/12/13 03:01:29;;;;;;;10.45;9.40;;;22.70;72.80;;;;;;6211902;28;84053;-64
2023/12/13 03:04:31;;;;;;;9.52;8.52;;;22.60;72.80;;;;;;6220656;28;84480;-64
2023/12/13 03:07:33;;;;;;;9.98;8.98;;;22.70;72.90;;;;;;6214563;28;84236;-64
2023/12/13 03:10:36;;;;;;;10.52;9.45;;;22.60;72.80;;;;;;6209759;28;84036;-64
2023/12/13 03:13:38;;;;;;;10.27;9.25;;;22.70;72.90;;;;;;6211890;28;82870;-64
2023/12/13 03:16:40;;;;;;;9.77;8.77;;;22.60;72.80;;;;;;6211420;28;84089;-64
2023/12/13 03:19:42;;;;;;;10.48;9.38;;;22.60;72.90;;;;;;6210897;28;82287;-64
2023/12/13 03:22:44;;;;;;;10.38;9.32;;;22.60;72.90;;;;;;6210085;28;83877;-64
2023/12/13 03:25:48;;;;;;;10.07;9.07;;;22.60;72.90;;;;;;6197435;28;83530;-64
2023/12/13 03:28:49;;;;;;;10.90;9.70;;;22.60;73.00;;;;;;6191711;28;84940;-64
2023/12/13 03:31:51;;;;;;;10.82;9.40;;;22.60;73.00;;;;;;6214041;28;83965;-64
2023/12/13 03:34:53;;;;;;;9.90;8.90;;;22.60;73.00;;;;;;6215079;28;83928;-64
2023/12/13 03:37:55;;;;;;;11.88;10.13;;;22.60;73.00;;;;;;6208768;28;83537;-64
2023/12/13 03:40:59;;;;;;;10.70;9.57;;;22.60;73.00;;;;;;6206585;28;84287;-64
2023/12/13 03:44:01;;;;;;;10.48;9.40;;;22.60;73.00;;;;;;6223272;28;82940;-64
2023/12/13 03:47:03;;;;;;;9.63;8.73;;;22.60;73.00;;;;;;6213465;28;84434;-64
2023/12/13 03:50:05;;;;;;;10.52;9.48;;;22.60;73.00;;;;;;6214037;28;83271;-64
2023/12/13 03:53:07;;;;;;;10.43;9.32;;;22.60;73.00;;;;;;6201809;28;84470;-64
2023/12/13 03:56:11;;;;;;;10.07;9.07;;;22.60;73.00;;;;;;6211589;28;82865;-64
2023/12/13 03:59:14;;;;;;;10.00;9.00;;;22.50;73.00;;;;;;6202859;28;83880;-64
2023/12/13 04:02:15;;;;;;;9.77;8.77;;;22.50;73.00;;;;;;6207864;28;84062;-64
2023/12/13 04:05:18;;;;;;;10.18;9.18;;;22.50;73.00;;;;;;6203061;28;84033;-64
2023/12/13 04:08:20;;;;;;;9.82;8.88;;;22.50;73.00;;;;;;6205675;28;82933;-64
2023/12/13 04:11:23;;;;;;;9.65;8.75;;;22.50;73.30;;;;;;6216060;28;84005;-64
2023/12/13 04:14:25;;;;;;;9.68;8.68;;;22.50;73.00;;;;;;6206270;28;84075;-64
2023/12/13 04:17:27;;;;;;;10.20;9.10;;;22.50;73.10;;;;;;6212719;28;82917;-64
2023/12/13 04:20:29;;;;;;;9.98;8.98;;;22.50;74.00;;;;;;6198175;28;83312;-64
2023/12/13 04:23:31;;;;;;;10.52;9.43;;;22.50;73.20;;;;;;6218209;28;84209;-64
2023/12/13 04:26:35;;;;;;;9.60;8.70;;;22.50;73.10;;;;;;6220708;28;84218;-64
2023/12/13 04:29:37;;;;;;;10.43;9.30;;;22.50;73.10;;;;;;6222472;28;85020;-64
2023/12/13 04:32:38;;;;;;;10.88;9.23;;;22.50;73.20;;;;;;6210179;28;84092;-64
2023/12/13 04:35:40;;;;;;;9.90;8.90;;;22.50;73.10;;;;;;6210537;28;83339;-64
2023/12/13 04:38:42;;;;;;;9.95;8.95;;;22.50;74.00;;;;;;6200256;28;82883;-64
2023/12/13 04:41:46;;;;;;;9.63;8.65;;;22.50;73.10;;;;;;6199894;28;84383;-64
2023/12/13 04:44:49;;;;;;;10.02;9.02;;;22.50;73.10;;;;;;6224214;28;84056;-64
2023/12/13 04:47:51;;;;;;;9.95;8.95;;;22.50;73.10;;;;;;6209887;28;83787;-64
2023/12/13 04:50:53;;;;;;;9.38;8.43;;;22.50;73.20;;;;;;6209417;28;82096;-64
2023/12/13 04:53:55;;;;;;;9.75;8.73;;;22.40;73.10;;;;;;6213457;28;82926;-64
2023/12/13 04:56:58;;;;;;;10.80;9.70;;;22.50;73.20;;;;;;6226117;28;84248;-64
2023/12/13 05:00:00;;;;;;;9.90;8.90;;;22.50;73.20;;;;;;6225410;28;84903;-64
2023/12/13 05:03:02;;;;;;;9.80;8.90;;;22.50;73.20;;;;;;6217207;28;84119;-64
2023/12/13 05:06:05;;;;;;;9.57;8.68;;;22.50;73.30;;;;;;6209776;28;84179;-64
2023/12/13 05:09:07;;;;;;;9.60;8.70;;;22.50;73.30;;;;;;6219708;28;84346;-64
2023/12/13 05:12:10;;;;;;;11.57;9.98;;;22.50;73.30;;;;;;6192531;28;83921;-64
2023/12/13 05:15:12;;;;;;;9.80;8.82;;;22.50;73.30;;;;;;6206091;28;84255;-64
2023/12/13 05:18:14;;;;;;;9.60;8.60;;;22.60;73.30;;;;;;6212844;28;83977;-64
2023/12/13 05:21:17;;;;;;;9.48;8.45;;;22.60;73.30;;;;;;6197747;28;83258;-64
2023/12/13 05:24:19;;;;;;;9.60;8.70;;;22.60;73.30;;;;;;6209119;28;84425;-64
2023/12/13 05:27:22;;;;;;;9.63;8.63;;;22.60;73.30;;;;;;6208560;28;84133;-64
2023/12/13 05:30:24;;;;;;;9.07;8.18;;;22.70;73.30;;;;;;6196986;28;85016;-64
2023/12/13 05:33:27;;;;;;;8.90;8.07;;;22.70;73.20;;;;;;6210402;28;83975;-64
2023/12/13 05:36:29;;;;;;;8.98;8.18;;;22.70;73.20;;;;;;6204566;28;84082;-64
2023/12/13 05:39:30;;;;;;;9.77;8.65;;;22.70;73.10;;;;;;6221176;28;83927;-64
2023/12/13 05:42:34;;;;;;;9.20;8.27;;;22.70;73.10;;;;;;6220910;28;84686;-64
2023/12/13 05:45:36;;;;;;;8.75;7.90;;;22.80;73.20;;;;;;6209794;28;83297;-64
2023/12/13 05:48:38;;;;;;;8.77;7.97;;;22.70;73.00;;;;;;6197050;28;84440;-64
2023/12/13 05:51:40;;;;;;;8.80;8.00;;;22.80;73.10;;;;;;6197697;28;82182;-64
2023/12/13 05:54:42;;;;;;;8.55;7.65;;;22.70;73.10;;;;;;6200186;28;83978;-64
2023/12/13 05:57:45;;;;;;;8.82;8.00;;;22.70;73.10;;;;;;6215862;28;84296;-64
2023/12/13 06:00:47;;;;;;;8.60;7.80;;;22.70;73.20;;;;;;6208323;28;84118;-64
2023/12/13 06:03:49;;;;;;;8.15;7.35;;;22.70;73.20;;;;;;6212769;28;84154;-64
2023/12/13 06:06:52;;;;;;;8.98;8.07;;;22.70;73.20;;;;;;6212682;28;84030;-64
2023/12/13 06:09:54;;;;;;;8.30;7.50;;;22.70;73.20;;;;;;6213787;28;84221;-64
2023/12/13 06:12:57;;;;;;;8.18;7.38;;;22.70;73.20;;;;;;6212903;28;84010;-64
2023/12/13 06:15:59;;;;;;;8.20;7.40;;;22.70;73.20;;;;;;6201474;28;82912;-64
2023/12/13 06:19:01;;;;;;;7.68;6.95;;;22.70;73.10;;;;;;6213973;28;84070;-64
2023/12/13 06:22:03;;;;;;;9.43;7.97;;;22.70;73.20;;;;;;6212015;28;83304;-64
2023/12/13 06:25:07;;;;;;;7.40;6.78;;;22.80;73.20;;;;;;6213016;28;84020;-64
2023/12/13 06:28:10;;;;;;;7.60;6.90;;;22.80;73.20;;;;;;6207307;28;82931;-64
2023/12/13 06:31:12;;;;;;;7.07;6.45;;;22.80;73.20;;;;;;6212028;28;85121;-63
2023/12/13 06:34:14;;;;;;;8.10;7.30;;;22.80;73.20;;;;;;6212530;28;84006;-64
2023/12/13 06:37:16;;;;;;;7.72;7.03;;;22.80;73.10;;;;;;6212594;28;84382;-64
2023/12/13 06:40:18;;;;;;;7.85;7.05;;;22.80;73.10;;;;;;6209562;28;83978;-64
2023/12/13 06:43:21;;;;;;;6.78;6.07;;;22.80;73.10;;;;;;6207093;28;83033;-64
2023/12/13 06:46:23;;;;;;;7.30;6.60;;;22.80;73.00;;;;;;6207638;28;84029;-64
2023/12/13 06:49:30;;;;;;;6.82;6.20;;;22.80;73.00;;;;;;6211945;28;84025;-64
2023/12/13 06:52:32;;;;;;;7.28;6.57;;;22.80;73.00;;;;;;6202261;28;83304;-64
2023/12/13 06:55:34;;;;;;;6.72;6.03;;;22.80;72.90;;;;;;6208037;28;83912;-64
2023/12/13 06:58:38;;;;;;;7.55;6.85;;;22.80;72.90;;;;;;6212220;28;83913;-64
2023/12/13 07:01:40;;;;;;;6.97;6.28;;;22.90;73.00;;;;;;6204542;28;84993;-64
2023/12/13 07:04:42;;;;;;;6.85;6.15;;;22.90;72.90;;;;;;6211816;28;85199;-64
2023/12/13 07:07:46;;;;;;;6.72;6.13;;;22.90;72.90;;;;;;6216076;28;83915;-64
2023/12/13 07:10:48;;;;;;;6.90;6.20;;;22.90;72.90;;;;;;6214566;28;83732;-64
2023/12/13 07:13:52;;;;;;;6.85;6.15;;;22.90;72.90;;;;;;6208478;28;83985;-64
2023/12/13 07:16:54;;;;;;;6.50;5.90;;;22.90;72.80;;;;;;6217418;28;83979;-64
2023/12/13 07:19:56;;;;;;;6.53;5.93;;;23.00;72.90;;;;;;6213302;28;84046;-64
2023/12/13 07:22:58;;;;;;;6.97;6.28;;;22.90;72.80;;;;;;6213719;28;83182;-64
2023/12/13 07:26:00;;;;;;;6.78;6.18;;;22.90;72.80;;;;;;6204052;28;83973;-64
2023/12/13 07:29:04;;;;;;;6.25;5.65;;;23.00;72.80;;;;;;6211186;28;84098;-64
2023/12/13 07:32:08;;;;;;;6.80;6.20;;;22.90;72.80;;;;;;6220049;28;85121;-64
2023/12/13 07:35:10;;;;;;;6.50;5.90;;;23.00;72.80;;;;;;6216956;28;82689;-64
2023/12/13 07:38:12;;;;;;;5.85;5.35;;;23.00;72.80;;;;;;6204145;28;82930;-64
2023/12/13 07:41:14;;;;;;;6.30;5.70;;;23.00;72.80;;;;;;6211127;28;82912;-64
2023/12/13 07:44:17;;;;;;;6.43;5.70;;;23.00;72.80;;;;;;6197693;28;84076;-64
2023/12/13 07:47:19;;;;;;;6.22;5.63;;;23.00;72.70;;;;;;6210842;28;82754;-64
2023/12/13 07:50:21;;;;;;;5.70;5.20;;;23.00;72.70;;;;;;6212098;28;84056;-64
2023/12/13 07:53:23;;;;;;;6.10;5.60;;;23.00;72.70;;;;;;6222596;28;83243;-64
2023/12/13 07:56:26;;;;;;;6.05;5.50;;;23.00;72.70;;;;;;6211297;28;84072;-64
2023/12/13 07:59:29;;;;;;;5.70;5.20;;;23.00;72.70;;;;;;6202694;28;84380;-64
2023/12/13 08:02:31;;;;;;;5.47;4.97;;;23.00;72.70;;;;;;6203949;28;85351;-64
2023/12/13 08:05:33;;;;;;;5.40;4.90;;;23.00;72.70;;;;;;6201545;28;84231;-64
2023/12/13 08:08:35;;;;;;;6.50;5.68;;;23.00;72.60;;;;;;6219347;28;82911;-63
2023/12/13 08:11:37;;;;;;;6.30;5.65;;;23.10;72.70;;;;;;6208349;28;84037;-64
2023/12/13 08:14:41;;;;;;;5.55;5.05;;;23.00;72.60;;;;;;6211078;28;84049;-64
2023/12/13 08:17:43;;;;;;;5.40;4.90;;;23.10;72.70;;;;;;6208040;28;84179;-64
2023/12/13 08:20:45;;;;;;;5.15;4.72;;;23.10;72.70;;;;;;6207748;28;84140;-64
2023/12/13 08:23:47;;;;;;;7.15;5.28;;;23.10;72.70;;;;;;6188536;28;83406;-64
2023/12/13 08:26:49;;;;;;;8.43;6.00;;;23.10;72.60;;;;;;6208107;28;84127;-64
2023/12/13 08:29:52;;;;;;;5.53;5.03;;;23.10;72.60;;;;;;6223664;28;84064;-64
2023/12/13 08:32:54;;;;;;;5.15;4.65;;;23.10;73.50;;;;;;6186013;28;84916;-64
2023/12/13 08:35:56;;;;;;;5.35;4.85;;;23.10;72.50;;;;;;6195166;28;84046;-64
2023/12/13 08:38:58;;;;;;;5.05;4.60;;;23.10;72.60;;;;;;6199614;28;82956;-64
2023/12/13 08:42:00;;;;;;;5.07;4.57;;;23.10;72.50;;;;;;6215932;28;84264;-64
2023/12/13 08:45:04;;;;;;;5.03;4.53;;;23.10;72.50;;;;;;6205345;28;83975;-64
2023/12/13 08:48:06;;;;;;;5.25;4.72;;;23.10;72.50;;;;;;6203838;28;82903;-64
2023/12/13 08:51:08;;;;;;;5.05;4.55;;;23.10;72.50;;;;;;6210166;28;83618;-64
2023/12/13 08:54:10;;;;;;;6.20;5.20;;;23.10;72.50;;;;;;6208834;28;83395;-64
2023/12/13 08:57:12;;;;;;;5.82;5.03;;;23.10;72.50;;;;;;6209792;28;84028;-64
2023/12/13 09:00:16;;;;;;;5.32;4.80;;;23.10;72.50;;;;;;6198990;28;83802;-63
2023/12/13 09:03:19;;;;;;;5.25;4.75;;;23.10;72.40;;;;;;6209218;28;84951;-64
2023/12/13 09:06:21;;;;;;;5.32;4.82;;;23.20;72.50;;;;;;6220056;28;84027;-64
2023/12/13 09:09:23;;;;;;;4.63;4.22;;;23.20;72.40;;;;;;6210566;28;83968;-64
2023/12/13 09:12:25;;;;;;;4.85;4.43;;;23.10;72.30;;;;;;6209405;28;84040;-64
2023/12/13 09:15:28;;;;;;;4.72;4.32;;;23.10;72.30;;;;;;6208500;28;84019;-64
2023/12/13 09:18:30;;;;;;;4.90;4.50;;;23.20;72.40;;;;;;6192740;28;84081;-64
2023/12/13 09:21:32;;;;;;;5.00;4.50;;;23.10;72.30;;;;;;6200703;28;83977;-64
2023/12/13 09:24:34;;;;;;;4.60;4.20;;;23.20;72.30;;;;;;6208771;28;83336;-64
2023/12/13 09:27:37;;;;;;;4.60;4.20;;;23.20;72.30;;;;;;6196353;28;84049;-64
2023/12/13 09:30:40;;;;;;;5.00;4.50;;;23.20;72.30;;;;;;6204127;28;84299;-64
2023/12/13 09:33:42;;;;;;;4.65;4.15;;;23.20;72.30;;;;;;6188870;28;85067;-64
2023/12/13 09:36:44;;;;;;;4.80;4.30;;;23.20;72.30;;;;;;6199305;28;83941;-64
2023/12/13 09:39:46;;;;;;;4.38;3.97;;;23.20;72.30;;;;;;6204355;28;82940;-64
2023/12/13 09:42:48;;;;;;;6.40;4.80;;;23.30;72.30;;;;;;6187309;28;82930;-64
2023/12/13 09:45:53;;;;;;;4.80;3.97;;;23.20;72.30;;;;;;6209027;28;83044;-64
2023/12/13 09:48:56;;;;;;;4.40;4.00;;;23.20;72.30;;;;;;6221054;28;84016;-64
2023/12/13 09:52:03;;;;;;;4.50;4.10;;;23.20;72.30;;;;;;6221437;28;84118;-64
2023/12/13 09:55:08;;;;;;;4.30;3.90;;;23.20;72.30;;;;;;6221491;28;83274;-64
2023/12/13 09:58:10;;;;;;;4.47;4.07;;;23.20;72.30;;;;;;6230276;28;84091;-64
2023/12/13 10:01:16;;;;;;;4.85;4.10;;;23.30;72.30;;;;;;6211009;28;84042;-64
2023/12/13 10:04:18;;;;;;;4.10;3.70;;;23.30;73.20;;;;;;6201612;28;84954;-64
2023/12/13 10:07:20;;;;;;;4.00;3.60;;;23.20;72.30;;;;;;6218630;28;83411;-64
2023/12/13 10:10:22;;;;;;;3.70;3.40;;;23.30;72.30;;;;;;6212890;28;84017;-64
2023/12/13 10:13:26;;;;;;;4.28;3.70;;;23.30;72.30;;;;;;6201577;28;84123;-64
2023/12/13 10:16:29;;;;;;;4.30;3.90;;;23.30;72.30;;;;;;6196053;28;84099;-64
2023/12/13 10:19:32;;;;;;;4.32;3.90;;;23.30;72.30;;;;;;6198279;28;84043;-64
2023/12/13 10:22:34;;;;;;;4.10;3.70;;;23.30;72.30;;;;;;6201909;28;84022;-64
2023/12/13 10:25:38;;;;;;;3.83;3.42;;;23.30;72.30;;;;;;6216666;28;82483;-64
2023/12/13 10:28:40;;;;;;;3.83;3.45;;;23.30;72.30;;;;;;6204335;28;84161;-64
2023/12/13 10:31:45;;;;;;;4.80;3.90;;;23.30;72.30;;;;;;6205743;28;84450;-64
2023/12/13 10:34:47;;;;;;;4.10;3.60;;;23.30;72.30;;;;;;6208249;28;84808;-64
2023/12/13 10:37:51;;;;;;;5.03;4.10;;;23.30;72.10;;;;;;6201610;28;84057;-64
2023/12/13 10:40:53;;;;;;;3.53;3.22;;;23.30;72.30;;;;;;6208776;28;84030;-64
2023/12/13 10:43:57;;;;;;;4.20;3.70;;;23.30;72.30;;;;;;6195410;28;84561;-64
2023/12/13 10:47:02;;;;;;;4.05;3.53;;;23.30;72.30;;;;;;6194445;28;83807;-64
2023/12/13 10:50:06;;;;;;;3.72;3.42;;;23.30;72.30;;;;;;6207729;28;82903;-64
2023/12/13 10:53:09;;;;;;;3.97;3.58;;;23.30;72.20;;;;;;6215094;28;84057;-64
2023/12/13 10:56:12;;;;;;;4.80;3.38;;;23.30;72.30;;;;;;6205327;28;83509;-64
2023/12/13 10:59:15;;;;;;;4.13;3.53;;;23.30;72.20;;;;;;6222612;28;83980;-64
2023/12/13 11:02:20;;;;;;;3.92;3.50;;;23.30;72.20;;;;;;6222670;28;83954;-64
2023/12/13 11:05:22;;;;;;;5.80;3.78;;;23.30;72.20;;;;;;6232374;28;85065;-64
2023/12/13 11:08:24;;;;;;;4.18;3.65;;;23.30;72.20;;;;;;6215610;28;82952;-64
2023/12/13 11:11:29;;;;;;;3.83;3.35;;;23.30;72.20;;;;;;6212675;28;83080;-64
2023/12/13 11:14:31;;;;;;;3.85;3.45;;;23.30;72.20;;;;;;6198473;28;83706;-64
2023/12/13 11:17:37;;;;;;;3.63;3.10;;;23.30;72.10;;;;;;6207186;28;82039;-64
2023/12/13 11:20:47;;;;;;;3.72;3.15;;;23.40;72.10;;;;;;6203762;28;82918;-64
2023/12/13 11:23:49;;;;;;;3.78;3.20;;;23.30;72.00;;;;;;6214175;28;83978;-64
2023/12/13 11:26:53;;;;;;;4.45;3.55;;;23.30;72.00;;;;;;6223895;28;82152;-64
2023/12/13 11:29:55;;;;;;;3.45;3.10;;;23.40;72.00;;;;;;6199046;28;83992;-63
2023/12/13 11:32:58;;;;;;;5.03;3.53;;;23.40;72.00;;;;;;6218926;28;83175;-64
2023/12/13 11:36:00;;;;;;;4.22;3.47;;;23.30;72.00;;;;;;6220166;28;84935;-64
2023/12/13 11:39:03;;;;;;;4.95;3.60;;;23.40;72.00;;;;;;6221009;28;84014;-64
2023/12/13 11:42:07;;;;;;;3.38;3.08;;;23.40;72.00;;;;;;6221995;28;84255;-64
2023/12/13 11:45:10;;;;;;;3.78;3.03;;;23.40;72.00;;;;;;6211309;28;84052;-64
2023/12/13 11:48:13;;;;;;;3.60;3.30;;;23.30;72.00;;;;;;6196549;28;84188;-64
2023/12/13 11:51:15;;;;;;;3.70;3.20;;;23.40;72.10;;;;;;6221104;28;84203;-64
2023/12/13 11:54:18;;;;;;;3.78;3.38;;;23.40;72.00;;;;;;6206994;28;84025;-64
2023/12/13 11:57:20;;;;;;;4.60;3.58;;;23.40;72.00;;;;;;6217348;28;83321;-64
2023/12/13 12:00:22;;;;;;;3.97;3.40;;;23.40;72.00;;;;;;6209381;28;82895;-64
2023/12/13 12:03:26;;;;;;;3.72;3.05;;;23.40;72.00;;;;;;6214486;28;84210;-64
2023/12/13 12:06:28;;;;;;;3.60;3.17;;;23.40;72.00;;;;;;6204323;28;85016;-64
2023/12/13 12:09:30;;;;;;;3.33;3.03;;;23.40;72.00;;;;;;6210972;28;84036;-64
2023/12/13 12:12:32;;;;;;;3.40;3.05;;;23.40;72.00;;;;;;6209795;28;84104;-64
2023/12/13 12:15:35;;;;;;;3.92;3.30;;;23.40;72.00;;;;;;6213491;28;84325;-64
2023/12/13 12:18:39;;;;;;;3.08;2.78;;;23.40;72.00;;;;;;6199229;28;83971;-64
2023/12/13 12:21:41;;;;;;;3.40;3.10;;;23.40;72.00;;;;;;6210037;28;83962;-64
2023/12/13 12:24:47;;;;;;;3.28;2.95;;;23.40;72.00;;;;;;6219498;28;84060;-64
2023/12/13 12:27:49;;;;;;;3.45;2.88;;;23.40;71.90;;;;;;6209722;28;83694;-64
2023/12/13 12:30:52;;;;;;;4.25;3.20;;;23.40;72.00;;;;;;6213946;28;84112;-64
2023/12/13 12:33:55;;;;;;;3.20;2.90;;;23.40;72.00;;;;;;6222045;28;84265;-64
2023/12/13 12:36:58;;;;;;;3.17;2.83;;;23.40;72.00;;;;;;6207958;28;84940;-64
2023/12/13 12:40:00;;;;;;;3.65;3.05;;;23.40;72.00;;;;;;6205627;28;85110;-64
2023/12/13 12:43:02;;;;;;;3.25;2.95;;;23.40;71.90;;;;;;6206474;28;84555;-64
2023/12/13 12:46:05;;;;;;;4.10;3.20;;;23.40;72.00;;;;;;6206350;28;82819;-65
2023/12/13 12:49:08;;;;;;;3.67;3.00;;;23.40;72.10;;;;;;6205924;28;84245;-64
2023/12/13 12:52:10;;;;;;;2.92;2.70;;;23.40;72.00;;;;;;6210570;28;84568;-63
2023/12/13 12:55:12;;;;;;;3.00;2.70;;;23.40;72.20;;;;;;6190187;28;84538;-64
2023/12/13 12:58:14;;;;;;;3.10;2.80;;;23.40;72.40;;;;;;6212206;28;83405;-64
2023/12/13 13:01:16;;;;;;;3.40;2.90;;;23.40;72.30;;;;;;6209043;28;83971;-64
2023/12/13 13:04:20;;;;;;;4.85;2.90;;;23.40;72.30;;;;;;6205093;28;84046;-64
2023/12/13 13:07:22;;;;;;;3.75;2.97;;;23.40;72.30;;;;;;6216134;28;85292;-65
2023/12/13 13:10:24;;;;;;;3.03;2.72;;;23.40;72.30;;;;;;6213985;28;84025;-64
2023/12/13 13:13:26;;;;;;;4.43;3.17;;;23.40;72.30;;;;;;6215754;28;84041;-64
2023/12/13 13:16:28;;;;;;;4.43;3.25;;;23.40;72.40;;;;;;6208274;28;84391;-64
2023/12/13 13:19:32;;;;;;;4.43;2.70;;;23.40;72.50;;;;;;6200061;28;84031;-64
2023/12/13 13:22:34;;;;;;;4.90;3.13;;;23.40;72.70;;;;;;6205179;28;83988;-65
2023/12/13 13:25:36;;;;;;;5.45;3.38;;;23.40;73.00;;;;;;6222808;28;83804;-64
2023/12/13 13:28:38;;;;;;;7.25;3.22;;;23.40;73.50;;;;;;6201214;28;83280;-65
2023/12/13 13:31:40;;;;;;;5.50;3.25;;;23.40;74.10;;;;;;6205839;28;84725;-64
2023/12/13 13:34:43;;;;;;;5.88;3.40;;;23.40;74.20;;;;;;6214007;28;83963;-64
2023/12/13 13:37:45;;;;;;;4.97;3.28;;;23.40;74.20;;;;;;6203832;28;85036;-64
2023/12/13 13:40:47;;;;;;;3.60;2.92;;;23.50;74.50;;;;;;6202725;28;84537;-64
2023/12/13 13:43:49;;;;;;;3.97;2.60;;;23.50;74.60;;;;;;6225050;28;84223;-63
2023/12/13 13:46:51;;;;;;;3.63;2.60;;;23.50;74.50;;;;;;6213604;28;84232;-64
2023/12/13 13:49:54;;;;;;;4.95;3.20;;;23.40;74.50;;;;;;6210829;28;82897;-65
2023/12/13 13:52:56;;;;;;;4.78;2.83;;;23.50;74.40;;;;;;6216532;28;83924;-64
2023/12/13 13:55:58;;;;;;;5.38;2.97;;;23.50;74.70;;;;;;6204642;28;82834;-63
2023/12/13 13:59:00;;;;;;;3.50;2.50;;;23.50;74.70;;;;;;6219705;28;83174;-63
2023/12/13 14:02:02;;;;;;;6.20;3.17;;;23.50;74.70;;;;;;6214401;28;82900;-63
2023/12/13 14:05:06;;;;;;;4.80;2.72;;;23.50;74.70;;;;;;6216578;28;84103;-63
2023/12/13 14:08:13;;;;;;;4.10;2.92;;;23.60;74.60;;;;;;6206493;28;85080;-63
2023/12/13 14:11:15;;;;;;;3.35;2.75;;;23.50;74.40;;;;;;6226163;28;84139;-63
2023/12/13 14:14:17;;;;;;;3.25;2.50;;;23.60;74.40;;;;;;6203860;28;83245;-64
2023/12/13 14:17:19;;;;;;;4.20;2.80;;;23.50;74.20;;;;;;6204170;28;84213;-63
2023/12/13 14:20:22;;;;;;;5.95;2.90;;;23.60;74.20;;;;;;6208919;28;83949;-64
2023/12/13 14:23:24;;;;;;;4.28;3.00;;;23.60;74.20;;;;;;6223467;28;84290;-64
2023/12/13 14:26:26;;;;;;;3.60;2.55;;;23.60;74.10;;;;;;6210669;28;84293;-64
2023/12/13 14:29:28;;;;;;;3.75;2.65;;;23.60;74.00;;;;;;6237700;28;83613;-64
2023/12/13 14:32:30;;;;;;;2.97;2.60;;;23.60;74.00;;;;;;6216193;28;84037;-64
2023/12/13 14:35:33;;;;;;;3.15;2.42;;;23.60;74.00;;;;;;6213589;28;83953;-64
2023/12/13 14:38:35;;;;;;;4.18;2.40;;;23.60;73.90;;;;;;6211286;28;85066;-64
2023/12/13 14:41:37;;;;;;;3.42;2.60;;;23.60;73.80;;;;;;6212689;28;83674;-64
2023/12/13 14:44:39;;;;;;;3.88;2.80;;;23.60;73.80;;;;;;6208702;28;83933;-64
2023/12/13 14:47:41;;;;;;;4.38;2.70;;;23.60;73.70;;;;;;6212357;28;84172;-64
2023/12/13 14:50:45;;;;;;;4.55;2.90;;;23.60;73.70;;;;;;6209537;28;84006;-63
2023/12/13 14:53:48;;;;;;;3.38;2.60;;;23.60;73.70;;;;;;6221541;28;83272;-63
2023/12/13 14:56:50;;;;;;;2.75;2.40;;;23.60;73.70;;;;;;6211015;28;83076;-64
2023/12/13 14:59:52;;;;;;;3.28;2.60;;;23.60;73.70;;;;;;6222370;28;83283;-64
2023/12/13 15:02:56;;;;;;;3.75;2.40;;;23.50;73.50;;;;;;6209087;28;84382;-64
2023/12/13 15:05:59;;;;;;;2.55;2.25;;;23.60;73.60;;;;;;6229100;28;83236;-64
2023/12/13 15:09:02;;;;;;;2.60;2.40;;;23.60;73.50;;;;;;6227456;28;83919;-63
2023/12/13 15:12:05;;;;;;;2.88;2.38;;;23.60;73.50;;;;;;6211249;28;84016;-64
2023/12/13 15:15:08;;;;;;;4.65;3.00;;;23.60;73.50;;;;;;6198172;28;84159;-64
2023/12/13 15:18:10;;;;;;;3.60;2.70;;;23.60;73.40;;;;;;6224021;28;84259;-64
2023/12/13 15:21:14;;;;;;;3.08;2.33;;;23.60;73.40;;;;;;6198932;28;83949;-64
2023/12/13 15:24:16;;;;;;;2.92;2.10;;;23.60;73.30;;;;;;6217610;28;83800;-64
2023/12/13 15:27:18;;;;;;;3.72;2.38;;;23.60;73.30;;;;;;6222659;28;82864;-64
2023/12/13 15:30:21;;;;;;;3.33;2.30;;;23.60;73.30;;;;;;6220119;28;83342;-64
2023/12/13 15:33:24;;;;;;;4.40;2.85;;;23.60;73.30;;;;;;6212295;28;85946;-64
2023/12/13 15:36:28;;;;;;;3.10;2.53;;;23.60;73.30;;;;;;6232980;28;84695;-64
2023/12/13 15:39:29;;;;;;;2.60;2.25;;;23.60;73.30;;;;;;6222696;28;84814;-64
2023/12/13 15:42:31;;;;;;;3.72;2.33;;;23.60;73.20;;;;;;6213439;28;84070;-64
2023/12/13 15:45:33;;;;;;;3.22;2.28;;;23.60;73.20;;;;;;6208392;28;84009;-64
2023/12/13 15:48:36;;;;;;;2.90;2.33;;;23.60;73.20;;;;;;6205721;28;82901;-64